Portada
METAR-TAF:

METAR-TAF

Aeroports :

Multan, Pakistan

latitud: 30-12-12N, longitud: 71-25-09E, altitud: 122 m

Observació

L'informe es va fer fa 10 minuts, a les 19:55 UTC
Vent 6 kt del Sud-Est
Temperatura 33°C
Humitat 63%
Pressió 997 hPa
Visibilitat: 4000 m
Escasses núvols a una alçada de 12000 ft
fum

METAR: OPMT 231955Z 13006KT 4000 FU FEW120 33/25 Q0997 NOSIG

Hora: 01:05 (20:05 UTC)

Pronòstic

L'informe es va fer fa 4 hores i 20 minuts, a les 15:45 UTC
Pronòstic vàlid del 23 a les 18 UTC al 24 a les 12 UTC
Vent 8 kt del Nord-Est
Visibilitat: 4000 m
Núvols disperses a una alçada de 10000 ft
calitja

TAF: OPMT 231545Z 2318/2412 05008KT 4000 HZ SCT100 TN30/2401Z TX39/2410Z

Observacions i pronòstics meteorològics de més de 4000 aeroports (METAR i TAF).

Les estacions disponibles són els punts grocs i vermells al mapa.

Posi el ratolí al punt desitjat per veure el nom de l'estació.

Feu clic per veure les observacions i els pronòstics meteorològics.

Per canviar el mapa: feu clic els botons verds amb una creu de color negre per apropar; al botó verd amb un guió per allunyar la imatge; o en les fletxes verdes per a mapes adjacents.


METAR-TAF: